sensor_id;sensor_type;location;lat;lon;timestamp;P1;durP1;ratioP1;P2;durP2;ratioP2
39486;SDS011;25173;50.430;18.926;2023-04-24T00:01:34;40.97;;;25.85;;
39486;SDS011;25173;50.430;18.926;2023-04-24T00:04:37;42.97;;;24.80;;
39486;SDS011;25173;50.430;18.926;2023-04-24T00:07:40;42.67;;;24.30;;
39486;SDS011;25173;50.430;18.926;2023-04-24T00:10:42;51.30;;;26.60;;
39486;SDS011;25173;50.430;18.926;2023-04-24T00:13:42;42.22;;;24.90;;
39486;SDS011;25173;50.430;18.926;2023-04-24T00:16:43;45.05;;;24.80;;
39486;SDS011;25173;50.430;18.926;2023-04-24T00:19:43;37.15;;;25.23;;
39486;SDS011;25173;50.430;18.926;2023-04-24T00:22:44;41.80;;;25.40;;
39486;SDS011;25173;50.430;18.926;2023-04-24T00:25:45;40.00;;;24.77;;
39486;SDS011;25173;50.430;18.926;2023-04-24T00:28:45;34.63;;;24.17;;
39486;SDS011;25173;50.430;18.926;2023-04-24T00:31:46;38.22;;;22.05;;
39486;SDS011;25173;50.430;18.926;2023-04-24T00:34:48;38.28;;;23.30;;
39486;SDS011;25173;50.430;18.926;2023-04-24T00:37:48;34.63;;;22.30;;
39486;SDS011;25173;50.430;18.926;2023-04-24T00:40:49;34.33;;;23.08;;
39486;SDS011;25173;50.430;18.926;2023-04-24T00:43:51;39.92;;;23.30;;
39486;SDS011;25173;50.430;18.926;2023-04-24T00:46:52;40.97;;;21.92;;
39486;SDS011;25173;50.430;18.926;2023-04-24T00:49:55;40.75;;;24.75;;
39486;SDS011;25173;50.430;18.926;2023-04-24T00:52:56;40.63;;;23.60;;
39486;SDS011;25173;50.430;18.926;2023-04-24T00:55:56;40.00;;;25.48;;
39486;SDS011;25173;50.430;18.926;2023-04-24T00:58:57;37.78;;;23.77;;
39486;SDS011;25173;50.430;18.926;2023-04-24T01:01:59;38.72;;;24.40;;
39486;SDS011;25173;50.430;18.926;2023-04-24T01:05:00;43.10;;;22.33;;
39486;SDS011;25173;50.430;18.926;2023-04-24T01:08:01;41.85;;;25.38;;
39486;SDS011;25173;50.430;18.926;2023-04-24T01:11:04;48.90;;;25.67;;
39486;SDS011;25173;50.430;18.926;2023-04-24T01:14:05;35.30;;;24.00;;
39486;SDS011;25173;50.430;18.926;2023-04-24T01:17:06;36.30;;;23.45;;
39486;SDS011;25173;50.430;18.926;2023-04-24T01:20:07;52.63;;;23.95;;
39486;SDS011;25173;50.430;18.926;2023-04-24T01:23:09;35.67;;;24.13;;
39486;SDS011;25173;50.430;18.926;2023-04-24T01:26:09;36.88;;;24.00;;
39486;SDS011;25173;50.430;18.926;2023-04-24T01:29:10;36.60;;;23.80;;
39486;SDS011;25173;50.430;18.926;2023-04-24T01:32:12;38.97;;;23.50;;
39486;SDS011;25173;50.430;18.926;2023-04-24T01:35:14;37.88;;;22.98;;
39486;SDS011;25173;50.430;18.926;2023-04-24T01:38:15;43.63;;;22.45;;
39486;SDS011;25173;50.430;18.926;2023-04-24T01:41:15;32.75;;;21.95;;
39486;SDS011;25173;50.430;18.926;2023-04-24T01:44:16;31.85;;;20.02;;
39486;SDS011;25173;50.430;18.926;2023-04-24T01:47:17;35.80;;;20.23;;
39486;SDS011;25173;50.430;18.926;2023-04-24T01:50:18;29.38;;;20.13;;
39486;SDS011;25173;50.430;18.926;2023-04-24T01:53:19;36.50;;;21.15;;
39486;SDS011;25173;50.430;18.926;2023-04-24T01:56:19;34.15;;;19.33;;
39486;SDS011;25173;50.430;18.926;2023-04-24T01:59:21;27.83;;;19.40;;
39486;SDS011;25173;50.430;18.926;2023-04-24T02:02:23;38.00;;;21.23;;
39486;SDS011;25173;50.430;18.926;2023-04-24T02:05:24;28.27;;;19.40;;
39486;SDS011;25173;50.430;18.926;2023-04-24T02:08:25;40.40;;;20.88;;
39486;SDS011;25173;50.430;18.926;2023-04-24T02:11:25;27.23;;;18.25;;
39486;SDS011;25173;50.430;18.926;2023-04-24T02:14:26;26.17;;;17.92;;
39486;SDS011;25173;50.430;18.926;2023-04-24T02:17:27;24.60;;;17.48;;
39486;SDS011;25173;50.430;18.926;2023-04-24T02:20:27;31.48;;;17.90;;
39486;SDS011;25173;50.430;18.926;2023-04-24T02:23:28;23.02;;;15.93;;
39486;SDS011;25173;50.430;18.926;2023-04-24T02:26:28;23.55;;;16.85;;
39486;SDS011;25173;50.430;18.926;2023-04-24T02:29:30;25.75;;;14.15;;
39486;SDS011;25173;50.430;18.926;2023-04-24T02:32:31;23.92;;;14.38;;
39486;SDS011;25173;50.430;18.926;2023-04-24T02:35:31;17.60;;;12.43;;
39486;SDS011;25173;50.430;18.926;2023-04-24T02:38:32;18.27;;;12.57;;
39486;SDS011;25173;50.430;18.926;2023-04-24T02:41:33;26.13;;;13.05;;
39486;SDS011;25173;50.430;18.926;2023-04-24T02:44:33;19.52;;;12.60;;
39486;SDS011;25173;50.430;18.926;2023-04-24T02:47:34;23.77;;;12.70;;
39486;SDS011;25173;50.430;18.926;2023-04-24T02:50:34;17.08;;;11.63;;
39486;SDS011;25173;50.430;18.926;2023-04-24T02:53:35;15.23;;;11.95;;
39486;SDS011;25173;50.430;18.926;2023-04-24T02:56:36;19.35;;;11.27;;
39486;SDS011;25173;50.430;18.926;2023-04-24T02:59:39;19.88;;;10.98;;
39486;SDS011;25173;50.430;18.926;2023-04-24T03:02:39;18.75;;;12.50;;
39486;SDS011;25173;50.430;18.926;2023-04-24T03:05:40;20.98;;;11.70;;
39486;SDS011;25173;50.430;18.926;2023-04-24T03:08:41;15.43;;;11.55;;
39486;SDS011;25173;50.430;18.926;2023-04-24T03:11:41;19.13;;;12.23;;
39486;SDS011;25173;50.430;18.926;2023-04-24T03:14:42;22.15;;;12.55;;
39486;SDS011;25173;50.430;18.926;2023-04-24T03:17:42;18.60;;;11.52;;
39486;SDS011;25173;50.430;18.926;2023-04-24T03:20:45;19.90;;;12.55;;
39486;SDS011;25173;50.430;18.926;2023-04-24T03:23:47;19.05;;;12.43;;
39486;SDS011;25173;50.430;18.926;2023-04-24T03:26:49;19.85;;;12.70;;
39486;SDS011;25173;50.430;18.926;2023-04-24T03:30:22;15.65;;;11.23;;
39486;SDS011;25173;50.430;18.926;2023-04-24T03:33:30;19.92;;;12.05;;
39486;SDS011;25173;50.430;18.926;2023-04-24T03:36:34;19.52;;;12.55;;
39486;SDS011;25173;50.430;18.926;2023-04-24T03:39:35;20.60;;;12.48;;
39486;SDS011;25173;50.430;18.926;2023-04-24T03:42:36;19.58;;;11.70;;
39486;SDS011;25173;50.430;18.926;2023-04-24T03:45:36;18.52;;;12.02;;
39486;SDS011;25173;50.430;18.926;2023-04-24T03:48:37;19.63;;;11.98;;
39486;SDS011;25173;50.430;18.926;2023-04-24T03:51:38;18.33;;;11.65;;
39486;SDS011;25173;50.430;18.926;2023-04-24T03:54:54;19.00;;;12.73;;
39486;SDS011;25173;50.430;18.926;2023-04-24T03:57:57;20.00;;;12.00;;
39486;SDS011;25173;50.430;18.926;2023-04-24T04:00:59;21.00;;;11.43;;
39486;SDS011;25173;50.430;18.926;2023-04-24T04:07:17;20.08;;;11.32;;
39486;SDS011;25173;50.430;18.926;2023-04-24T04:10:17;25.20;;;11.25;;
39486;SDS011;25173;50.430;18.926;2023-04-24T04:13:18;18.83;;;10.93;;
39486;SDS011;25173;50.430;18.926;2023-04-24T04:16:19;19.42;;;10.50;;
39486;SDS011;25173;50.430;18.926;2023-04-24T04:19:21;14.07;;;10.07;;
39486;SDS011;25173;50.430;18.926;2023-04-24T04:22:22;13.93;;;8.93;;
39486;SDS011;25173;50.430;18.926;2023-04-24T04:25:25;13.07;;;9.43;;
39486;SDS011;25173;50.430;18.926;2023-04-24T04:28:26;13.75;;;9.15;;
39486;SDS011;25173;50.430;18.926;2023-04-24T04:31:27;14.80;;;10.25;;
39486;SDS011;25173;50.430;18.926;2023-04-24T04:34:28;17.15;;;12.13;;
39486;SDS011;25173;50.430;18.926;2023-04-24T04:37:30;18.67;;;11.48;;
39486;SDS011;25173;50.430;18.926;2023-04-24T04:40:48;17.58;;;10.02;;
39486;SDS011;25173;50.430;18.926;2023-04-24T04:43:52;18.70;;;9.43;;
39486;SDS011;25173;50.430;18.926;2023-04-24T04:46:53;17.98;;;9.73;;
39486;SDS011;25173;50.430;18.926;2023-04-24T04:50:01;25.45;;;11.25;;
39486;SDS011;25173;50.430;18.926;2023-04-24T04:53:05;15.20;;;10.20;;
39486;SDS011;25173;50.430;18.926;2023-04-24T04:56:10;14.73;;;8.07;;
39486;SDS011;25173;50.430;18.926;2023-04-24T04:59:15;16.48;;;9.23;;
39486;SDS011;25173;50.430;18.926;2023-04-24T05:02:15;16.58;;;8.32;;
39486;SDS011;25173;50.430;18.926;2023-04-24T05:05:16;14.75;;;8.88;;
39486;SDS011;25173;50.430;18.926;2023-04-24T05:08:18;15.43;;;8.25;;
39486;SDS011;25173;50.430;18.926;2023-04-24T05:11:18;11.43;;;8.45;;
39486;SDS011;25173;50.430;18.926;2023-04-24T05:14:19;15.88;;;7.15;;
39486;SDS011;25173;50.430;18.926;2023-04-24T05:17:20;9.68;;;7.07;;
39486;SDS011;25173;50.430;18.926;2023-04-24T05:20:20;9.75;;;7.15;;
39486;SDS011;25173;50.430;18.926;2023-04-24T05:23:21;22.65;;;8.00;;
39486;SDS011;25173;50.430;18.926;2023-04-24T05:26:25;20.77;;;7.53;;
39486;SDS011;25173;50.430;18.926;2023-04-24T05:29:26;16.73;;;7.78;;
39486;SDS011;25173;50.430;18.926;2023-04-24T05:32:27;12.60;;;7.50;;
39486;SDS011;25173;50.430;18.926;2023-04-24T05:35:29;10.00;;;6.60;;
39486;SDS011;25173;50.430;18.926;2023-04-24T05:38:30;11.95;;;7.55;;
39486;SDS011;25173;50.430;18.926;2023-04-24T05:41:30;12.82;;;7.05;;
39486;SDS011;25173;50.430;18.926;2023-04-24T05:44:31;14.38;;;7.20;;
39486;SDS011;25173;50.430;18.926;2023-04-24T05:47:33;14.82;;;7.22;;
39486;SDS011;25173;50.430;18.926;2023-04-24T05:50:34;9.32;;;6.72;;
39486;SDS011;25173;50.430;18.926;2023-04-24T05:53:34;22.00;;;7.40;;
39486;SDS011;25173;50.430;18.926;2023-04-24T05:56:35;9.55;;;5.65;;
39486;SDS011;25173;50.430;18.926;2023-04-24T05:59:40;13.15;;;6.95;;
39486;SDS011;25173;50.430;18.926;2023-04-24T06:02:41;15.57;;;8.07;;
39486;SDS011;25173;50.430;18.926;2023-04-24T06:05:45;12.60;;;6.32;;
39486;SDS011;25173;50.430;18.926;2023-04-24T06:08:47;11.13;;;7.18;;
39486;SDS011;25173;50.430;18.926;2023-04-24T06:11:48;11.90;;;6.68;;
39486;SDS011;25173;50.430;18.926;2023-04-24T06:14:50;20.75;;;7.45;;
39486;SDS011;25173;50.430;18.926;2023-04-24T06:17:58;13.65;;;7.47;;
39486;SDS011;25173;50.430;18.926;2023-04-24T06:21:00;10.77;;;6.70;;
39486;SDS011;25173;50.430;18.926;2023-04-24T06:24:00;15.07;;;6.05;;
39486;SDS011;25173;50.430;18.926;2023-04-24T06:27:01;12.20;;;5.80;;
39486;SDS011;25173;50.430;18.926;2023-04-24T06:30:03;11.35;;;6.10;;
39486;SDS011;25173;50.430;18.926;2023-04-24T06:33:03;11.40;;;6.05;;
39486;SDS011;25173;50.430;18.926;2023-04-24T06:36:04;14.88;;;6.05;;
39486;SDS011;25173;50.430;18.926;2023-04-24T06:39:05;13.02;;;6.72;;
39486;SDS011;25173;50.430;18.926;2023-04-24T06:42:06;15.27;;;6.93;;
39486;SDS011;25173;50.430;18.926;2023-04-24T06:45:08;19.05;;;5.88;;
39486;SDS011;25173;50.430;18.926;2023-04-24T06:48:09;9.95;;;5.88;;
39486;SDS011;25173;50.430;18.926;2023-04-24T06:51:10;44.63;;;9.52;;
39486;SDS011;25173;50.430;18.926;2023-04-24T06:54:11;12.68;;;6.70;;
39486;SDS011;25173;50.430;18.926;2023-04-24T06:57:11;10.30;;;5.80;;
39486;SDS011;25173;50.430;18.926;2023-04-24T07:00:12;16.48;;;6.45;;
39486;SDS011;25173;50.430;18.926;2023-04-24T07:03:13;10.30;;;6.30;;
39486;SDS011;25173;50.430;18.926;2023-04-24T07:06:13;18.77;;;7.68;;
39486;SDS011;25173;50.430;18.926;2023-04-24T07:09:16;7.95;;;5.60;;
39486;SDS011;25173;50.430;18.926;2023-04-24T07:12:18;23.15;;;11.75;;
39486;SDS011;25173;50.430;18.926;2023-04-24T07:15:20;10.63;;;6.57;;
39486;SDS011;25173;50.430;18.926;2023-04-24T07:18:21;14.82;;;9.52;;
39486;SDS011;25173;50.430;18.926;2023-04-24T07:21:22;29.77;;;17.70;;
39486;SDS011;25173;50.430;18.926;2023-04-24T07:24:22;21.20;;;7.82;;
39486;SDS011;25173;50.430;18.926;2023-04-24T07:27:23;13.45;;;7.78;;
39486;SDS011;25173;50.430;18.926;2023-04-24T07:30:25;23.13;;;8.27;;
39486;SDS011;25173;50.430;18.926;2023-04-24T07:33:26;13.07;;;6.05;;
39486;SDS011;25173;50.430;18.926;2023-04-24T07:36:27;14.32;;;5.90;;
39486;SDS011;25173;50.430;18.926;2023-04-24T07:39:28;10.88;;;6.05;;
39486;SDS011;25173;50.430;18.926;2023-04-24T07:42:29;10.60;;;4.82;;
39486;SDS011;25173;50.430;18.926;2023-04-24T07:45:31;16.05;;;4.82;;
39486;SDS011;25173;50.430;18.926;2023-04-24T07:48:33;10.98;;;5.40;;
39486;SDS011;25173;50.430;18.926;2023-04-24T07:51:35;10.48;;;5.57;;
39486;SDS011;25173;50.430;18.926;2023-04-24T07:54:38;12.50;;;5.18;;
39486;SDS011;25173;50.430;18.926;2023-04-24T07:57:38;10.68;;;4.55;;
39486;SDS011;25173;50.430;18.926;2023-04-24T08:00:39;8.48;;;4.43;;
39486;SDS011;25173;50.430;18.926;2023-04-24T08:03:40;6.40;;;4.47;;
39486;SDS011;25173;50.430;18.926;2023-04-24T08:06:40;13.05;;;5.65;;
39486;SDS011;25173;50.430;18.926;2023-04-24T08:09:41;9.07;;;4.75;;
39486;SDS011;25173;50.430;18.926;2023-04-24T08:12:42;11.60;;;4.93;;
39486;SDS011;25173;50.430;18.926;2023-04-24T08:15:42;10.48;;;5.63;;
39486;SDS011;25173;50.430;18.926;2023-04-24T08:18:43;11.40;;;4.95;;
39486;SDS011;25173;50.430;18.926;2023-04-24T08:21:43;10.65;;;5.20;;
39486;SDS011;25173;50.430;18.926;2023-04-24T08:24:44;10.98;;;4.93;;
39486;SDS011;25173;50.430;18.926;2023-04-24T08:27:44;9.93;;;4.60;;
39486;SDS011;25173;50.430;18.926;2023-04-24T08:30:45;7.20;;;4.75;;
39486;SDS011;25173;50.430;18.926;2023-04-24T08:33:54;13.23;;;6.43;;
39486;SDS011;25173;50.430;18.926;2023-04-24T08:36:55;6.82;;;4.35;;
39486;SDS011;25173;50.430;18.926;2023-04-24T08:39:55;5.70;;;3.90;;
39486;SDS011;25173;50.430;18.926;2023-04-24T08:42:56;6.43;;;3.80;;
39486;SDS011;25173;50.430;18.926;2023-04-24T08:45:58;8.35;;;4.28;;
39486;SDS011;25173;50.430;18.926;2023-04-24T08:48:59;9.00;;;4.28;;
39486;SDS011;25173;50.430;18.926;2023-04-24T08:52:01;10.20;;;3.75;;
39486;SDS011;25173;50.430;18.926;2023-04-24T08:55:02;11.20;;;4.60;;
39486;SDS011;25173;50.430;18.926;2023-04-24T08:58:04;8.73;;;4.28;;
39486;SDS011;25173;50.430;18.926;2023-04-24T09:01:10;7.28;;;3.83;;
39486;SDS011;25173;50.430;18.926;2023-04-24T09:04:37;9.00;;;4.70;;
39486;SDS011;25173;50.430;18.926;2023-04-24T09:07:39;10.50;;;4.97;;
39486;SDS011;25173;50.430;18.926;2023-04-24T09:10:42;11.57;;;4.68;;
39486;SDS011;25173;50.430;18.926;2023-04-24T09:13:43;11.40;;;4.30;;
39486;SDS011;25173;50.430;18.926;2023-04-24T09:16:44;8.63;;;4.50;;
39486;SDS011;25173;50.430;18.926;2023-04-24T09:19:45;10.82;;;4.78;;
39486;SDS011;25173;50.430;18.926;2023-04-24T09:22:45;5.90;;;4.50;;
39486;SDS011;25173;50.430;18.926;2023-04-24T09:25:46;5.28;;;3.92;;
39486;SDS011;25173;50.430;18.926;2023-04-24T09:28:54;13.73;;;5.53;;
39486;SDS011;25173;50.430;18.926;2023-04-24T09:31:55;5.15;;;4.22;;
39486;SDS011;25173;50.430;18.926;2023-04-24T09:35:05;6.90;;;4.57;;
39486;SDS011;25173;50.430;18.926;2023-04-24T09:38:08;6.72;;;3.30;;
39486;SDS011;25173;50.430;18.926;2023-04-24T09:41:09;6.85;;;3.95;;
39486;SDS011;25173;50.430;18.926;2023-04-24T09:44:20;10.95;;;4.60;;
39486;SDS011;25173;50.430;18.926;2023-04-24T09:47:21;6.30;;;3.92;;
39486;SDS011;25173;50.430;18.926;2023-04-24T09:50:22;8.43;;;4.28;;
39486;SDS011;25173;50.430;18.926;2023-04-24T09:53:23;6.50;;;4.07;;
39486;SDS011;25173;50.430;18.926;2023-04-24T09:56:25;7.88;;;4.13;;
39486;SDS011;25173;50.430;18.926;2023-04-24T09:59:27;16.13;;;4.03;;
39486;SDS011;25173;50.430;18.926;2023-04-24T10:02:27;5.82;;;3.40;;
39486;SDS011;25173;50.430;18.926;2023-04-24T10:05:33;7.93;;;3.90;;
39486;SDS011;25173;50.430;18.926;2023-04-24T10:08:35;5.97;;;3.30;;
39486;SDS011;25173;50.430;18.926;2023-04-24T10:11:36;12.38;;;4.20;;
39486;SDS011;25173;50.430;18.926;2023-04-24T10:14:37;8.57;;;4.35;;
39486;SDS011;25173;50.430;18.926;2023-04-24T10:17:38;7.15;;;4.55;;
39486;SDS011;25173;50.430;18.926;2023-04-24T10:20:40;7.07;;;3.03;;
39486;SDS011;25173;50.430;18.926;2023-04-24T10:23:41;5.32;;;3.35;;
39486;SDS011;25173;50.430;18.926;2023-04-24T10:26:43;6.93;;;3.70;;
39486;SDS011;25173;50.430;18.926;2023-04-24T10:29:44;12.07;;;5.13;;
39486;SDS011;25173;50.430;18.926;2023-04-24T10:32:47;7.10;;;4.25;;
39486;SDS011;25173;50.430;18.926;2023-04-24T10:35:48;10.75;;;4.68;;
39486;SDS011;25173;50.430;18.926;2023-04-24T10:38:51;10.40;;;4.80;;
39486;SDS011;25173;50.430;18.926;2023-04-24T10:41:55;7.22;;;3.70;;
39486;SDS011;25173;50.430;18.926;2023-04-24T10:44:58;5.88;;;4.40;;
39486;SDS011;25173;50.430;18.926;2023-04-24T10:47:59;8.25;;;3.70;;
39486;SDS011;25173;50.430;18.926;2023-04-24T10:51:03;6.93;;;3.80;;
39486;SDS011;25173;50.430;18.926;2023-04-24T10:54:21;10.10;;;4.40;;
39486;SDS011;25173;50.430;18.926;2023-04-24T10:57:29;10.43;;;5.38;;
39486;SDS011;25173;50.430;18.926;2023-04-24T11:00:31;10.98;;;5.00;;
39486;SDS011;25173;50.430;18.926;2023-04-24T11:03:32;6.95;;;4.25;;
39486;SDS011;25173;50.430;18.926;2023-04-24T11:06:36;7.50;;;5.47;;
39486;SDS011;25173;50.430;18.926;2023-04-24T11:09:37;7.53;;;4.20;;
39486;SDS011;25173;50.430;18.926;2023-04-24T11:12:40;12.25;;;4.68;;
39486;SDS011;25173;50.430;18.926;2023-04-24T11:15:41;10.32;;;4.82;;
39486;SDS011;25173;50.430;18.926;2023-04-24T11:18:42;10.25;;;4.50;;
39486;SDS011;25173;50.430;18.926;2023-04-24T11:21:55;8.85;;;4.63;;
39486;SDS011;25173;50.430;18.926;2023-04-24T11:25:02;7.00;;;4.50;;
39486;SDS011;25173;50.430;18.926;2023-04-24T11:28:05;4.85;;;3.63;;
39486;SDS011;25173;50.430;18.926;2023-04-24T11:34:55;11.55;;;4.65;;
39486;SDS011;25173;50.430;18.926;2023-04-24T11:38:07;8.35;;;4.10;;
39486;SDS011;25173;50.430;18.926;2023-04-24T11:41:10;6.10;;;3.28;;
39486;SDS011;25173;50.430;18.926;2023-04-24T11:44:11;14.85;;;4.43;;
39486;SDS011;25173;50.430;18.926;2023-04-24T11:47:13;15.00;;;3.97;;
39486;SDS011;25173;50.430;18.926;2023-04-24T11:50:15;8.63;;;4.47;;
39486;SDS011;25173;50.430;18.926;2023-04-24T11:53:21;10.98;;;4.90;;
39486;SDS011;25173;50.430;18.926;2023-04-24T11:56:22;11.63;;;4.72;;
39486;SDS011;25173;50.430;18.926;2023-04-24T11:59:23;8.90;;;5.30;;
39486;SDS011;25173;50.430;18.926;2023-04-24T12:02:25;12.65;;;5.05;;
39486;SDS011;25173;50.430;18.926;2023-04-24T12:05:26;7.43;;;5.15;;
39486;SDS011;25173;50.430;18.926;2023-04-24T12:08:28;14.38;;;6.50;;
39486;SDS011;25173;50.430;18.926;2023-04-24T12:11:29;7.82;;;5.28;;
39486;SDS011;25173;50.430;18.926;2023-04-24T12:14:29;9.85;;;6.05;;
39486;SDS011;25173;50.430;18.926;2023-04-24T12:17:31;7.03;;;4.85;;
39486;SDS011;25173;50.430;18.926;2023-04-24T12:20:33;6.63;;;5.15;;
39486;SDS011;25173;50.430;18.926;2023-04-24T12:23:34;10.50;;;4.20;;
39486;SDS011;25173;50.430;18.926;2023-04-24T12:26:35;7.82;;;4.70;;
39486;SDS011;25173;50.430;18.926;2023-04-24T12:29:36;7.22;;;4.13;;
39486;SDS011;25173;50.430;18.926;2023-04-24T12:32:40;5.93;;;3.80;;
39486;SDS011;25173;50.430;18.926;2023-04-24T12:35:42;7.00;;;5.65;;
39486;SDS011;25173;50.430;18.926;2023-04-24T12:38:43;13.15;;;8.35;;
39486;SDS011;25173;50.430;18.926;2023-04-24T12:41:56;5.07;;;3.97;;
39486;SDS011;25173;50.430;18.926;2023-04-24T12:45:02;9.65;;;4.75;;
39486;SDS011;25173;50.430;18.926;2023-04-24T12:48:05;7.57;;;4.35;;
39486;SDS011;25173;50.430;18.926;2023-04-24T12:51:05;9.25;;;5.03;;
39486;SDS011;25173;50.430;18.926;2023-04-24T12:54:06;5.45;;;4.50;;
39486;SDS011;25173;50.430;18.926;2023-04-24T12:57:07;16.95;;;6.10;;
39486;SDS011;25173;50.430;18.926;2023-04-24T13:00:08;7.18;;;4.78;;
39486;SDS011;25173;50.430;18.926;2023-04-24T13:03:09;7.15;;;4.72;;
39486;SDS011;25173;50.430;18.926;2023-04-24T13:06:09;20.70;;;5.78;;
39486;SDS011;25173;50.430;18.926;2023-04-24T13:09:10;9.32;;;4.50;;
39486;SDS011;25173;50.430;18.926;2023-04-24T13:12:11;21.58;;;10.32;;
39486;SDS011;25173;50.430;18.926;2023-04-24T13:15:12;10.38;;;3.97;;
39486;SDS011;25173;50.430;18.926;2023-04-24T13:18:13;16.42;;;7.18;;
39486;SDS011;25173;50.430;18.926;2023-04-24T13:21:14;46.30;;;22.38;;
39486;SDS011;25173;50.430;18.926;2023-04-24T13:24:14;15.48;;;6.25;;
39486;SDS011;25173;50.430;18.926;2023-04-24T13:27:16;10.63;;;3.60;;
39486;SDS011;25173;50.430;18.926;2023-04-24T13:30:17;44.95;;;19.63;;
39486;SDS011;25173;50.430;18.926;2023-04-24T13:33:17;12.52;;;4.65;;
39486;SDS011;25173;50.430;18.926;2023-04-24T13:36:18;9.38;;;4.28;;
39486;SDS011;25173;50.430;18.926;2023-04-24T13:39:19;14.18;;;6.03;;
39486;SDS011;25173;50.430;18.926;2023-04-24T13:42:19;8.40;;;4.18;;
39486;SDS011;25173;50.430;18.926;2023-04-24T13:45:20;28.35;;;12.52;;
39486;SDS011;25173;50.430;18.926;2023-04-24T13:48:21;10.43;;;5.80;;
39486;SDS011;25173;50.430;18.926;2023-04-24T13:51:21;19.58;;;7.03;;
39486;SDS011;25173;50.430;18.926;2023-04-24T13:54:22;17.23;;;9.70;;
39486;SDS011;25173;50.430;18.926;2023-04-24T13:57:25;15.75;;;9.00;;
39486;SDS011;25173;50.430;18.926;2023-04-24T14:00:27;13.60;;;5.50;;
39486;SDS011;25173;50.430;18.926;2023-04-24T14:03:28;13.65;;;6.63;;
39486;SDS011;25173;50.430;18.926;2023-04-24T14:06:29;9.90;;;6.15;;
39486;SDS011;25173;50.430;18.926;2023-04-24T14:09:29;19.33;;;8.45;;
39486;SDS011;25173;50.430;18.926;2023-04-24T14:12:30;13.80;;;5.68;;
39486;SDS011;25173;50.430;18.926;2023-04-24T14:15:31;18.05;;;8.00;;
39486;SDS011;25173;50.430;18.926;2023-04-24T14:18:31;9.95;;;5.78;;
39486;SDS011;25173;50.430;18.926;2023-04-24T14:21:32;10.32;;;5.80;;
39486;SDS011;25173;50.430;18.926;2023-04-24T14:24:33;18.30;;;10.00;;
39486;SDS011;25173;50.430;18.926;2023-04-24T14:27:33;9.45;;;5.40;;
39486;SDS011;25173;50.430;18.926;2023-04-24T14:30:34;18.95;;;8.10;;
39486;SDS011;25173;50.430;18.926;2023-04-24T14:33:37;8.13;;;5.30;;
39486;SDS011;25173;50.430;18.926;2023-04-24T14:36:38;21.23;;;10.80;;
39486;SDS011;25173;50.430;18.926;2023-04-24T14:39:38;11.27;;;5.97;;
39486;SDS011;25173;50.430;18.926;2023-04-24T14:42:39;11.43;;;6.75;;
39486;SDS011;25173;50.430;18.926;2023-04-24T14:45:40;10.88;;;5.45;;
39486;SDS011;25173;50.430;18.926;2023-04-24T14:48:41;16.50;;;9.75;;
39486;SDS011;25173;50.430;18.926;2023-04-24T14:51:42;14.70;;;7.03;;
39486;SDS011;25173;50.430;18.926;2023-04-24T14:54:43;8.73;;;5.38;;
39486;SDS011;25173;50.430;18.926;2023-04-24T14:57:43;17.95;;;12.55;;
39486;SDS011;25173;50.430;18.926;2023-04-24T15:00:44;12.20;;;7.82;;
39486;SDS011;25173;50.430;18.926;2023-04-24T15:03:45;11.32;;;7.40;;
39486;SDS011;25173;50.430;18.926;2023-04-24T15:06:45;10.65;;;6.22;;
39486;SDS011;25173;50.430;18.926;2023-04-24T15:09:46;9.15;;;6.05;;
39486;SDS011;25173;50.430;18.926;2023-04-24T15:12:47;13.15;;;9.02;;
39486;SDS011;25173;50.430;18.926;2023-04-24T15:15:48;17.50;;;11.38;;
39486;SDS011;25173;50.430;18.926;2023-04-24T15:18:48;27.45;;;17.40;;
39486;SDS011;25173;50.430;18.926;2023-04-24T15:21:49;18.83;;;12.43;;
39486;SDS011;25173;50.430;18.926;2023-04-24T15:24:50;18.40;;;11.70;;
39486;SDS011;25173;50.430;18.926;2023-04-24T15:27:50;12.77;;;6.20;;
39486;SDS011;25173;50.430;18.926;2023-04-24T15:30:51;8.13;;;5.40;;
39486;SDS011;25173;50.430;18.926;2023-04-24T15:33:52;18.40;;;12.23;;
39486;SDS011;25173;50.430;18.926;2023-04-24T15:36:52;12.50;;;9.60;;
39486;SDS011;25173;50.430;18.926;2023-04-24T15:39:53;22.00;;;13.05;;
39486;SDS011;25173;50.430;18.926;2023-04-24T15:42:53;16.58;;;8.05;;
39486;SDS011;25173;50.430;18.926;2023-04-24T15:45:54;9.77;;;8.02;;
39486;SDS011;25173;50.430;18.926;2023-04-24T15:48:56;14.50;;;8.15;;
39486;SDS011;25173;50.430;18.926;2023-04-24T15:51:56;33.92;;;19.58;;
39486;SDS011;25173;50.430;18.926;2023-04-24T15:54:57;27.42;;;18.30;;
39486;SDS011;25173;50.430;18.926;2023-04-24T15:57:58;10.38;;;7.55;;
39486;SDS011;25173;50.430;18.926;2023-04-24T16:00:59;41.53;;;27.20;;
39486;SDS011;25173;50.430;18.926;2023-04-24T16:03:59;16.92;;;12.50;;
39486;SDS011;25173;50.430;18.926;2023-04-24T16:07:00;17.20;;;9.63;;
39486;SDS011;25173;50.430;18.926;2023-04-24T16:10:01;24.33;;;15.30;;
39486;SDS011;25173;50.430;18.926;2023-04-24T16:13:02;9.23;;;6.65;;
39486;SDS011;25173;50.430;18.926;2023-04-24T16:16:04;10.80;;;6.47;;
39486;SDS011;25173;50.430;18.926;2023-04-24T16:19:05;8.85;;;6.75;;
39486;SDS011;25173;50.430;18.926;2023-04-24T16:22:07;35.13;;;26.67;;
39486;SDS011;25173;50.430;18.926;2023-04-24T16:25:08;11.50;;;9.23;;
39486;SDS011;25173;50.430;18.926;2023-04-24T16:28:09;17.45;;;10.43;;
39486;SDS011;25173;50.430;18.926;2023-04-24T16:31:11;20.85;;;12.88;;
39486;SDS011;25173;50.430;18.926;2023-04-24T16:34:12;18.38;;;15.38;;
39486;SDS011;25173;50.430;18.926;2023-04-24T16:37:12;11.95;;;9.63;;
39486;SDS011;25173;50.430;18.926;2023-04-24T16:40:13;9.82;;;8.68;;
39486;SDS011;25173;50.430;18.926;2023-04-24T16:43:13;16.10;;;6.78;;
39486;SDS011;25173;50.430;18.926;2023-04-24T16:46:14;13.45;;;7.20;;
39486;SDS011;25173;50.430;18.926;2023-04-24T16:49:15;14.63;;;9.15;;
39486;SDS011;25173;50.430;18.926;2023-04-24T16:52:15;16.25;;;12.07;;
39486;SDS011;25173;50.430;18.926;2023-04-24T16:55:16;19.15;;;13.30;;
39486;SDS011;25173;50.430;18.926;2023-04-24T16:58:16;20.40;;;15.00;;
39486;SDS011;25173;50.430;18.926;2023-04-24T17:01:17;18.40;;;10.30;;
39486;SDS011;25173;50.430;18.926;2023-04-24T17:04:18;18.38;;;12.10;;
39486;SDS011;25173;50.430;18.926;2023-04-24T17:07:19;13.32;;;7.93;;
39486;SDS011;25173;50.430;18.926;2023-04-24T17:10:20;87.68;;;70.78;;
39486;SDS011;25173;50.430;18.926;2023-04-24T17:13:20;25.98;;;21.42;;
39486;SDS011;25173;50.430;18.926;2023-04-24T17:16:21;18.17;;;8.25;;
39486;SDS011;25173;50.430;18.926;2023-04-24T17:19:22;17.10;;;11.20;;
39486;SDS011;25173;50.430;18.926;2023-04-24T17:22:22;34.47;;;23.52;;
39486;SDS011;25173;50.430;18.926;2023-04-24T17:25:23;13.10;;;9.50;;
39486;SDS011;25173;50.430;18.926;2023-04-24T17:28:26;13.57;;;8.05;;
39486;SDS011;25173;50.430;18.926;2023-04-24T17:31:30;12.02;;;8.25;;
39486;SDS011;25173;50.430;18.926;2023-04-24T17:34:31;11.65;;;8.45;;
39486;SDS011;25173;50.430;18.926;2023-04-24T17:37:32;11.20;;;10.13;;
39486;SDS011;25173;50.430;18.926;2023-04-24T17:40:33;14.30;;;10.25;;
39486;SDS011;25173;50.430;18.926;2023-04-24T17:43:33;15.57;;;13.07;;
39486;SDS011;25173;50.430;18.926;2023-04-24T17:46:34;15.18;;;10.80;;
39486;SDS011;25173;50.430;18.926;2023-04-24T17:49:35;8.68;;;7.80;;